D/T METAR WX W/DIR W/SPE G/SPE TEMP DEWP
23/05/19 12:50 EGQL 231150Z 27019KT 9999 SCT040 BKN130 16/09 Q1010 BLU W (270°) 21.9mph 16°C 9°C
23/05/19 11:50 EGQL 231050Z 26016KT 9999 SCT025 BKN080 15/09 Q1011 BLU W (260°) 18.4mph 15°C 9°C
23/05/19 10:50 EGQL 230950Z 28018KT 9999 SCT040 BKN090 14/07 Q1011 BLU W (280°) 20.7mph 14°C 7°C
23/05/19 09:50 EGQL 230850Z 27014KT 9999 SCT040 BKN080 13/07 Q1012 BLU W (270°) 16.1mph 13°C 7°C
23/05/19 08:50 EGQL 230750Z 24014KT 9999 SCT033 BKN110 13/08 Q1012 BLU WSW (240°) 16.1mph 13°C 8°C
23/05/19 07:50 EGQL 230650Z 25010KT 9999 SCT032 SCT110 10/07 Q1012 BLU WSW (250°) 11.5mph 10°C 7°C
23/05/19 06:50 EGQL 230550Z 25009KT CAVOK 08/06 Q1012 BLU WSW (250°) 10.4mph 8°C 6°C
23/05/19 05:50 EGQL 230450Z 26011KT CAVOK 07/06 Q1012 BLU W (260°) 12.7mph 7°C 6°C
23/05/19 04:50 EGQL 230350Z 26013KT CAVOK 07/06 Q1012 BLU W (260°) 15.0mph 7°C 6°C
23/05/19 03:50 EGQL 230250Z 26013KT 9999 SCT032 08/06 Q1012 BLU W (260°) 15.0mph 8°C 6°C
23/05/19 02:50 EGQL 230150Z 25011KT 9999 BKN032 BKN130 09/06 Q1012 BLU WSW (250°) 12.7mph 9°C 6°C
23/05/19 01:50 EGQL 230050Z 25015KT 9999 BKN033 BKN120 10/06 Q1012 BLU WSW (250°) 17.3mph 10°C 6°C
23/05/19 00:50 EGQL 222350Z 23014KT 9999 BKN039 BKN130 10/06 Q1013 BLU SW (230°) 16.1mph 10°C 6°C
22/05/19 23:50 EGQL 222250Z 21009KT 9999 FEW046 BKN080 BKN120 10/06 Q1013 BLU SSW (210°) 10.4mph 10°C 6°C
22/05/19 22:50 EGQL 222150Z 29011KT CAVOK 11/06 Q1013 BLU WNW (290°) 12.7mph 11°C 6°C
22/05/19 21:50 EGQL 222050Z 28012KT CAVOK 12/06 Q1013 BLU W (280°) 13.8mph 12°C 6°C
22/05/19 20:50 EGQL 221950Z 30010KT CAVOK 13/07 Q1013 BLU WNW (300°) 11.5mph 13°C 7°C
22/05/19 19:50 EGQL 221850Z 30010KT 9999 BKN048 14/07 Q1013 BLU WNW (300°) 11.5mph 14°C 7°C
22/05/19 18:50 EGQL 221750Z 29014KT CAVOK 15/07 Q1013 BLU WNW (290°) 16.1mph 15°C 7°C
22/05/19 17:50 EGQL 221650Z 28012KT CAVOK 15/07 Q1013 BLU W (280°) 13.8mph 15°C 7°C
22/05/19 16:50 EGQL 221550Z 30010KT 9999 SHRA BKN050 SCT070 14/07 Q1014 BLU SHRA WNW (300°) 11.5mph 14°C 7°C
22/05/19 15:50 EGQL 221450Z 28013KT 9999 BKN048 SCT070 15/07 Q1014 BLU W (280°) 15.0mph 15°C 7°C
22/05/19 14:50 EGQL 221350Z 28014KT 9999 BKN046 SCT110 15/06 Q1014 BLU W (280°) 16.1mph 15°C 6°C
22/05/19 13:50 EGQL 221250Z 29013KT 9999 FEW034 BKN039 15/07 Q1015 BLU WNW (290°) 15.0mph 15°C 7°C
22/05/19 12:50 EGQL 221150Z 28015KT 9999 SCT039 BKN060 14/07 Q1015 BLU W (280°) 17.3mph 14°C 7°C
22/05/19 11:50 EGQL 221050Z 29012KT 9999 FEW028 BKN050 13/08 Q1015 BLU WNW (290°) 13.8mph 13°C 8°C
22/05/19 10:50 EGQL 220950Z 29010KT 9999 VCSH FEW020 BKN050 11/08 Q1015 BLU VCSH WNW (290°) 11.5mph 11°C 8°C
22/05/19 10:33 EGQL 220933Z 29012KT 9999 RA SCT028 BKN050 BKN110 11/07 Q1015 BLU RA WNW (290°) 13.8mph 11°C 7°C
22/05/19 09:50 EGQL 220850Z 29013KT 9999 FEW029 BKN070 12/05 Q1015 BLU WNW (290°) 15.0mph 12°C 5°C
22/05/19 08:50 EGQL 220750Z 28013KT CAVOK 11/05 Q1016 BLU W (280°) 15.0mph 11°C 5°C
22/05/19 07:50 EGQL 220650Z 27010KT CAVOK 10/05 Q1016 BLU W (270°) 11.5mph 10°C 5°C
22/05/19 06:50 EGQL 220550Z 25008KT CAVOK 08/05 Q1016 BLU WSW (250°) 9.2mph 8°C 5°C
22/05/19 05:50 EGQL 220450Z 26007KT CAVOK 06/05 Q1016 BLU W (260°) 8.1mph 6°C 5°C
22/05/19 04:50 EGQL 220350Z 25007KT CAVOK 05/04 Q1017 BLU WSW (250°) 8.1mph 5°C 4°C
22/05/19 03:50 EGQL 220250Z 28005KT CAVOK 07/07 Q1017 BLU W (280°) 5.8mph 7°C 7°C
22/05/19 02:50 EGQL 220150Z 28005KT 9999 FEW045 BKN060 07/07 Q1017 BLU W (280°) 5.8mph 7°C 7°C
22/05/19 01:50 EGQL 220050Z 27004KT CAVOK 06/06 Q1017 BLU W (270°) 4.6mph 6°C 6°C
22/05/19 00:50 EGQL 212350Z 27003KT CAVOK 07/06 Q1017 BLU W (270°) 3.5mph 7°C 6°C
21/05/19 23:50 EGQL 212250Z 00000KT 9999 FEW025 SCT060 09/08 Q1017 RESHRA BLU N (0°) 9°C 8°C
21/05/19 22:50 EGQL 212150Z 24001KT 9999 VCSH FEW020 FEW025CB BKN043 10/08 Q1018 BLU VCSH WSW (240°) 1.2mph 10°C 8°C
21/05/19 21:50 EGQL 212050Z 03005KT 9999 VCSH FEW013 SCT025CB BKN050 10/08 Q1018 BLU VCSH NNE (30°) 5.8mph 10°C 8°C
21/05/19 20:50 EGQL 211950Z 32003KT 9999 VCSH FEW023 SCT025CB BKN050 11/09 Q1018 BLU VCSH NW (320°) 3.5mph 11°C 9°C
21/05/19 19:50 EGQL 211850Z 23008KT 9999 -SHRA FEW020 SCT025CB BKN031 11/09 Q1018 BLU -SHRA SW (230°) 9.2mph 11°C 9°C
21/05/19 18:50 EGQL 211750Z 16004KT 9999 VCSH FEW025CB SCT070 13/08 Q1017 BLU VCSH SSE (160°) 4.6mph 13°C 8°C
21/05/19 17:50 EGQL 211650Z 06005KT CAVOK 14/08 Q1017 BLU ENE (60°) 5.8mph 14°C 8°C
21/05/19 16:50 EGQL 211550Z 17004KT CAVOK 12/10 Q1017 RERA BLU S (170°) 4.6mph 12°C 10°C
21/05/19 16:21 EGQL 211521Z 26007KT 8000 RA FEW027 BKN045 12/10 Q1018 BLU RA W (260°) 8.1mph 12°C 10°C
21/05/19 15:57 EGQL 211457Z 10010KT 9999 SHRA BKN039 SCT090 12/09 Q1017 BLU SHRA E (100°) 11.5mph 12°C 9°C